Terminal Aerodrome Forecast
Issued by NWS Twin Cities, MN

Home | Current Version | Previous Version | Graphics & Text | Print | Product List | Glossary On
Versions: 1 2 3 4 5 6 7 8 9 10 11 12 13 14 15 16 17 18 19 20 21 22 23 24
000
FTUS43 KMPX 240830 AAA
TAFMSP
TAF AMD
KMSP 240830Z 2409/2512 VRB03KT P6SM FEW250
     FM241500 01010KT P6SM SCT080 BKN150
     FM241900 36012G20KT P6SM SCT080
     FM250100 35007KT P6SM SKC=

USA.gov is the U.S. government's official web portal to all federal, state and local government web resources and services.